UAAH/BXH METAR and TAF weather

Enter ICAO airport designator
Station Type Date Time Source
UAAH METAR 2020/08/05 11:00 UTC NOAA

UAAH 051100Z 21004MPS 170V230 CAVOK 34/04 Q1006 R23/0///60 NOSIG RMK QFE716/0955


Station Type Date Time Source
UAAH Decoded METAR 2020/08/05 11:00 UTC NOAA

Station name not available
Aug 05, 2020 - 07:00 AM EDT / 2020.08.05 1100 UTC
Wind: from the SSW (210 degrees) at 9 MPH (8 KT) (direction variable):0
Visibility: greater than 7 mile(s):0
Temperature: 93 F (34 C)
Dew Point: 39 F (4 C)
Relative Humidity: 15%
Pressure (altimeter): 29.71 in. Hg (1006 hPa)
ob: UAAH 051100Z 21004MPS 170V230 CAVOK 34/04 Q1006 R23/0///60 NOSIG RMK QFE716/0955
cycle: 11

Station Type Date Time Source
UAAH TAF 2016/09/21 12:09 UTC NOAA

TAF
AMD TAF
AMD UAAH 211506Z 2112/2124 36006MPS CAVOK

Example: see airport list